sensor_id;sensor_type;location;lat;lon;timestamp;pressure;altitude;pressure_sealevel;temperature;humidity
53635;BME280;39542;-34.932;138.594;2023-05-21T00:00:02;102045.51;;;17.17;67.23
53635;BME280;39542;-34.932;138.594;2023-05-21T00:00:37;102046.20;;;17.17;67.23
53635;BME280;39542;-34.932;138.594;2023-05-21T00:01:11;102045.80;;;17.17;67.21
53635;BME280;39542;-34.932;138.594;2023-05-21T00:01:45;102046.52;;;17.16;67.23
53635;BME280;39542;-34.932;138.594;2023-05-21T00:02:20;102048.40;;;17.16;67.22
53635;BME280;39542;-34.932;138.594;2023-05-21T00:02:54;102046.38;;;17.15;67.25
53635;BME280;39542;-34.932;138.594;2023-05-21T00:03:28;102046.54;;;17.16;67.17
53635;BME280;39542;-34.932;138.594;2023-05-21T00:04:03;102046.08;;;17.17;67.17
53635;BME280;39542;-34.932;138.594;2023-05-21T00:04:37;102049.83;;;17.17;67.13
53635;BME280;39542;-34.932;138.594;2023-05-21T00:05:11;102048.26;;;17.18;67.14
53635;BME280;39542;-34.932;138.594;2023-05-21T00:05:46;102045.59;;;17.18;67.12
53635;BME280;39542;-34.932;138.594;2023-05-21T00:06:20;102047.39;;;17.18;67.13
53635;BME280;39542;-34.932;138.594;2023-05-21T00:06:54;102045.73;;;17.19;67.10
53635;BME280;39542;-34.932;138.594;2023-05-21T00:07:28;102046.96;;;17.18;67.17
53635;BME280;39542;-34.932;138.594;2023-05-21T00:08:03;102048.48;;;17.18;67.15
53635;BME280;39542;-34.932;138.594;2023-05-21T00:08:37;102049.98;;;17.19;67.14
53635;BME280;39542;-34.932;138.594;2023-05-21T00:09:12;102049.48;;;17.19;67.09
53635;BME280;39542;-34.932;138.594;2023-05-21T00:09:46;102052.11;;;17.19;67.06
53635;BME280;39542;-34.932;138.594;2023-05-21T00:10:20;102054.77;;;17.19;67.15
53635;BME280;39542;-34.932;138.594;2023-05-21T00:10:55;102055.15;;;17.20;67.06
53635;BME280;39542;-34.932;138.594;2023-05-21T00:11:29;102057.05;;;17.20;67.09
53635;BME280;39542;-34.932;138.594;2023-05-21T00:12:04;102052.43;;;17.20;67.16
53635;BME280;39542;-34.932;138.594;2023-05-21T00:12:38;102052.71;;;17.19;67.17
53635;BME280;39542;-34.932;138.594;2023-05-21T00:13:12;102055.88;;;17.20;67.16
53635;BME280;39542;-34.932;138.594;2023-05-21T00:13:47;102052.97;;;17.21;67.14
53635;BME280;39542;-34.932;138.594;2023-05-21T00:14:21;102054.96;;;17.21;67.07
53635;BME280;39542;-34.932;138.594;2023-05-21T00:14:56;102052.93;;;17.22;67.08
53635;BME280;39542;-34.932;138.594;2023-05-21T00:15:30;102052.85;;;17.21;67.13
53635;BME280;39542;-34.932;138.594;2023-05-21T00:16:04;102052.39;;;17.21;67.13
53635;BME280;39542;-34.932;138.594;2023-05-21T00:16:39;102054.60;;;17.21;67.13
53635;BME280;39542;-34.932;138.594;2023-05-21T00:17:13;102058.48;;;17.20;67.11
53635;BME280;39542;-34.932;138.594;2023-05-21T00:17:47;102060.23;;;17.20;67.15
53635;BME280;39542;-34.932;138.594;2023-05-21T00:18:22;102054.77;;;17.18;67.18
53635;BME280;39542;-34.932;138.594;2023-05-21T00:18:57;102058.69;;;17.19;67.14
53635;BME280;39542;-34.932;138.594;2023-05-21T00:19:31;102056.34;;;17.21;67.10
53635;BME280;39542;-34.932;138.594;2023-05-21T00:20:07;102055.56;;;17.20;67.07
53635;BME280;39542;-34.932;138.594;2023-05-21T00:20:41;102054.63;;;17.20;67.10
53635;BME280;39542;-34.932;138.594;2023-05-21T00:21:16;102056.47;;;17.20;67.07
53635;BME280;39542;-34.932;138.594;2023-05-21T00:21:50;102060.24;;;17.22;67.04
53635;BME280;39542;-34.932;138.594;2023-05-21T00:22:24;102060.42;;;17.22;67.01
53635;BME280;39542;-34.932;138.594;2023-05-21T00:22:59;102058.87;;;17.22;67.01
53635;BME280;39542;-34.932;138.594;2023-05-21T00:23:33;102059.46;;;17.21;67.06
53635;BME280;39542;-34.932;138.594;2023-05-21T00:24:08;102061.50;;;17.23;67.03
53635;BME280;39542;-34.932;138.594;2023-05-21T00:24:42;102060.65;;;17.24;67.00
53635;BME280;39542;-34.932;138.594;2023-05-21T00:25:16;102060.39;;;17.23;67.03
53635;BME280;39542;-34.932;138.594;2023-05-21T00:25:51;102061.68;;;17.22;67.04
53635;BME280;39542;-34.932;138.594;2023-05-21T00:26:25;102061.27;;;17.22;67.01
53635;BME280;39542;-34.932;138.594;2023-05-21T00:26:59;102061.13;;;17.22;66.98
53635;BME280;39542;-34.932;138.594;2023-05-21T00:27:34;102061.18;;;17.22;66.95
53635;BME280;39542;-34.932;138.594;2023-05-21T00:28:09;102060.09;;;17.23;67.00
53635;BME280;39542;-34.932;138.594;2023-05-21T00:28:43;102059.69;;;17.23;66.96
53635;BME280;39542;-34.932;138.594;2023-05-21T00:29:18;102059.16;;;17.23;66.92
53635;BME280;39542;-34.932;138.594;2023-05-21T00:29:52;102060.29;;;17.24;66.98
53635;BME280;39542;-34.932;138.594;2023-05-21T00:30:26;102060.98;;;17.24;66.86
53635;BME280;39542;-34.932;138.594;2023-05-21T00:31:00;102058.65;;;17.25;66.91
53635;BME280;39542;-34.932;138.594;2023-05-21T00:31:34;102059.69;;;17.25;66.88
53635;BME280;39542;-34.932;138.594;2023-05-21T00:32:09;102059.53;;;17.25;66.80
53635;BME280;39542;-34.932;138.594;2023-05-21T00:32:43;102060.98;;;17.24;66.92
53635;BME280;39542;-34.932;138.594;2023-05-21T00:33:18;102062.77;;;17.25;66.82
53635;BME280;39542;-34.932;138.594;2023-05-21T00:33:52;102060.65;;;17.25;66.87
53635;BME280;39542;-34.932;138.594;2023-05-21T00:34:26;102062.15;;;17.26;66.83
53635;BME280;39542;-34.932;138.594;2023-05-21T00:35:00;102061.36;;;17.26;66.81
53635;BME280;39542;-34.932;138.594;2023-05-21T00:35:35;102063.85;;;17.27;66.88
53635;BME280;39542;-34.932;138.594;2023-05-21T00:36:09;102061.08;;;17.27;66.78
53635;BME280;39542;-34.932;138.594;2023-05-21T00:36:45;102060.88;;;17.27;66.79
53635;BME280;39542;-34.932;138.594;2023-05-21T00:37:19;102060.51;;;17.28;66.81
53635;BME280;39542;-34.932;138.594;2023-05-21T00:37:54;102061.31;;;17.26;66.87
53635;BME280;39542;-34.932;138.594;2023-05-21T00:38:28;102061.12;;;17.26;66.85
53635;BME280;39542;-34.932;138.594;2023-05-21T00:39:02;102061.15;;;17.27;66.83
53635;BME280;39542;-34.932;138.594;2023-05-21T00:39:37;102061.92;;;17.28;66.84
53635;BME280;39542;-34.932;138.594;2023-05-21T00:40:12;102062.52;;;17.31;66.80
53635;BME280;39542;-34.932;138.594;2023-05-21T00:40:46;102062.66;;;17.30;66.90
53635;BME280;39542;-34.932;138.594;2023-05-21T00:41:21;102063.15;;;17.32;66.83
53635;BME280;39542;-34.932;138.594;2023-05-21T00:41:55;102063.01;;;17.30;66.81
53635;BME280;39542;-34.932;138.594;2023-05-21T00:42:29;102063.78;;;17.29;67.08
53635;BME280;39542;-34.932;138.594;2023-05-21T00:43:04;102064.13;;;17.29;67.11
53635;BME280;39542;-34.932;138.594;2023-05-21T00:43:38;102064.08;;;17.31;67.13
53635;BME280;39542;-34.932;138.594;2023-05-21T00:44:13;102066.11;;;17.32;67.19
53635;BME280;39542;-34.932;138.594;2023-05-21T00:44:48;102066.99;;;17.31;67.15
53635;BME280;39542;-34.932;138.594;2023-05-21T00:45:22;102068.10;;;17.33;67.20
53635;BME280;39542;-34.932;138.594;2023-05-21T00:45:57;102067.97;;;17.35;67.30
53635;BME280;39542;-34.932;138.594;2023-05-21T00:46:31;102067.01;;;17.33;67.34
53635;BME280;39542;-34.932;138.594;2023-05-21T00:47:06;102068.21;;;17.35;67.37
53635;BME280;39542;-34.932;138.594;2023-05-21T00:47:40;102066.92;;;17.35;67.76
53635;BME280;39542;-34.932;138.594;2023-05-21T00:48:15;102067.91;;;17.39;67.79
53635;BME280;39542;-34.932;138.594;2023-05-21T00:48:50;102072.39;;;17.37;67.82
53635;BME280;39542;-34.932;138.594;2023-05-21T00:49:25;102069.96;;;17.36;67.79
53635;BME280;39542;-34.932;138.594;2023-05-21T00:50:00;102074.59;;;17.36;67.87
53635;BME280;39542;-34.932;138.594;2023-05-21T00:50:36;102073.34;;;17.36;67.99
53635;BME280;39542;-34.932;138.594;2023-05-21T00:51:10;102074.15;;;17.37;67.94
53635;BME280;39542;-34.932;138.594;2023-05-21T00:51:45;102074.35;;;17.37;67.80
53635;BME280;39542;-34.932;138.594;2023-05-21T00:52:20;102077.09;;;17.37;67.78
53635;BME280;39542;-34.932;138.594;2023-05-21T00:52:54;102076.55;;;17.36;67.82
53635;BME280;39542;-34.932;138.594;2023-05-21T00:53:29;102079.14;;;17.37;67.95
53635;BME280;39542;-34.932;138.594;2023-05-21T00:54:04;102077.82;;;17.37;68.12
53635;BME280;39542;-34.932;138.594;2023-05-21T00:54:38;102076.58;;;17.39;68.27
53635;BME280;39542;-34.932;138.594;2023-05-21T00:55:13;102077.02;;;17.41;68.42
53635;BME280;39542;-34.932;138.594;2023-05-21T00:55:47;102078.91;;;17.40;68.38
53635;BME280;39542;-34.932;138.594;2023-05-21T00:56:24;102080.49;;;17.40;68.45
53635;BME280;39542;-34.932;138.594;2023-05-21T00:56:58;102080.99;;;17.39;68.36
53635;BME280;39542;-34.932;138.594;2023-05-21T00:57:34;102083.21;;;17.38;68.39
53635;BME280;39542;-34.932;138.594;2023-05-21T00:58:08;102079.97;;;17.39;68.25
53635;BME280;39542;-34.932;138.594;2023-05-21T00:58:43;102082.59;;;17.39;68.22
53635;BME280;39542;-34.932;138.594;2023-05-21T00:59:18;102085.76;;;17.40;68.22
53635;BME280;39542;-34.932;138.594;2023-05-21T00:59:53;102084.27;;;17.40;68.33
53635;BME280;39542;-34.932;138.594;2023-05-21T01:00:28;102083.88;;;17.41;68.33
53635;BME280;39542;-34.932;138.594;2023-05-21T01:01:03;102083.86;;;17.41;68.29
53635;BME280;39542;-34.932;138.594;2023-05-21T01:01:38;102083.69;;;17.43;68.40
53635;BME280;39542;-34.932;138.594;2023-05-21T01:02:13;102084.61;;;17.43;68.41
53635;BME280;39542;-34.932;138.594;2023-05-21T01:02:47;102085.41;;;17.42;68.41
53635;BME280;39542;-34.932;138.594;2023-05-21T01:03:22;102084.38;;;17.43;68.41
53635;BME280;39542;-34.932;138.594;2023-05-21T01:03:56;102088.57;;;17.44;68.41
53635;BME280;39542;-34.932;138.594;2023-05-21T01:04:32;102089.27;;;17.43;68.47
53635;BME280;39542;-34.932;138.594;2023-05-21T01:05:07;102086.34;;;17.44;68.40
53635;BME280;39542;-34.932;138.594;2023-05-21T01:05:41;102091.74;;;17.45;68.52
53635;BME280;39542;-34.932;138.594;2023-05-21T01:06:16;102087.53;;;17.47;68.51
53635;BME280;39542;-34.932;138.594;2023-05-21T01:06:50;102090.11;;;17.52;68.30
53635;BME280;39542;-34.932;138.594;2023-05-21T01:07:24;102088.27;;;17.49;68.27
53635;BME280;39542;-34.932;138.594;2023-05-21T01:07:59;102088.45;;;17.47;68.35
53635;BME280;39542;-34.932;138.594;2023-05-21T01:08:35;102089.17;;;17.46;68.36
53635;BME280;39542;-34.932;138.594;2023-05-21T01:09:09;102090.08;;;17.47;68.36
53635;BME280;39542;-34.932;138.594;2023-05-21T01:09:44;102093.73;;;17.49;68.48
53635;BME280;39542;-34.932;138.594;2023-05-21T01:10:18;102092.57;;;17.50;68.43
53635;BME280;39542;-34.932;138.594;2023-05-21T01:10:53;102090.96;;;17.50;68.49
53635;BME280;39542;-34.932;138.594;2023-05-21T01:11:39;102094.02;;;17.49;68.69
53635;BME280;39542;-34.932;138.594;2023-05-21T01:12:15;102094.14;;;17.51;68.45
53635;BME280;39542;-34.932;138.594;2023-05-21T01:12:50;102095.49;;;17.50;68.44
53635;BME280;39542;-34.932;138.594;2023-05-21T01:13:25;102094.63;;;17.50;68.62
53635;BME280;39542;-34.932;138.594;2023-05-21T01:14:00;102099.30;;;17.53;68.28
53635;BME280;39542;-34.932;138.594;2023-05-21T01:14:36;102095.80;;;17.52;68.31
53635;BME280;39542;-34.932;138.594;2023-05-21T01:15:11;102095.40;;;17.51;68.33
53635;BME280;39542;-34.932;138.594;2023-05-21T01:15:45;102095.80;;;17.52;68.34
53635;BME280;39542;-34.932;138.594;2023-05-21T01:16:20;102097.50;;;17.53;68.38
53635;BME280;39542;-34.932;138.594;2023-05-21T01:16:55;102096.05;;;17.54;68.23
53635;BME280;39542;-34.932;138.594;2023-05-21T01:17:30;102094.48;;;17.57;67.93
53635;BME280;39542;-34.932;138.594;2023-05-21T01:18:05;102095.59;;;17.54;67.90
53635;BME280;39542;-34.932;138.594;2023-05-21T01:18:40;102095.85;;;17.48;67.75
53635;BME280;39542;-34.932;138.594;2023-05-21T01:19:17;102095.11;;;17.47;67.81
53635;BME280;39542;-34.932;138.594;2023-05-21T01:19:52;102094.96;;;17.47;67.74
53635;BME280;39542;-34.932;138.594;2023-05-21T01:20:27;102091.10;;;17.47;67.72
53635;BME280;39542;-34.932;138.594;2023-05-21T01:21:01;102092.40;;;17.46;67.65
53635;BME280;39542;-34.932;138.594;2023-05-21T01:21:41;102091.34;;;17.46;67.55
53635;BME280;39542;-34.932;138.594;2023-05-21T01:22:18;102094.22;;;17.47;67.53
53635;BME280;39542;-34.932;138.594;2023-05-21T01:22:55;102093.27;;;17.47;67.53
53635;BME280;39542;-34.932;138.594;2023-05-21T01:23:29;102091.98;;;17.47;67.63
53635;BME280;39542;-34.932;138.594;2023-05-21T01:24:04;102093.65;;;17.46;67.57
53635;BME280;39542;-34.932;138.594;2023-05-21T01:24:39;102092.90;;;17.46;67.56
53635;BME280;39542;-34.932;138.594;2023-05-21T01:25:13;102092.37;;;17.45;67.59
53635;BME280;39542;-34.932;138.594;2023-05-21T01:25:48;102092.18;;;17.46;67.60
53635;BME280;39542;-34.932;138.594;2023-05-21T01:26:22;102090.58;;;17.46;67.60
53635;BME280;39542;-34.932;138.594;2023-05-21T01:26:57;102089.72;;;17.46;67.61
53635;BME280;39542;-34.932;138.594;2023-05-21T01:27:32;102087.64;;;17.47;67.66
53635;BME280;39542;-34.932;138.594;2023-05-21T01:28:06;102089.94;;;17.47;67.63
53635;BME280;39542;-34.932;138.594;2023-05-21T01:28:40;102091.83;;;17.47;67.62
53635;BME280;39542;-34.932;138.594;2023-05-21T01:29:15;102090.63;;;17.45;67.77
53635;BME280;39542;-34.932;138.594;2023-05-21T01:29:50;102090.48;;;17.45;67.69
53635;BME280;39542;-34.932;138.594;2023-05-21T01:30:25;102092.44;;;17.45;67.82
53635;BME280;39542;-34.932;138.594;2023-05-21T01:31:04;102090.77;;;17.46;67.78
53635;BME280;39542;-34.932;138.594;2023-05-21T01:31:55;102088.16;;;17.46;67.80
53635;BME280;39542;-34.932;138.594;2023-05-21T01:32:37;102088.81;;;17.46;67.78
53635;BME280;39542;-34.932;138.594;2023-05-21T01:33:18;102087.57;;;17.46;67.78
53635;BME280;39542;-34.932;138.594;2023-05-21T01:33:57;102085.31;;;17.47;67.73
53635;BME280;39542;-34.932;138.594;2023-05-21T01:34:39;102087.53;;;17.47;67.72
53635;BME280;39542;-34.932;138.594;2023-05-21T01:35:19;102083.99;;;17.47;67.68
53635;BME280;39542;-34.932;138.594;2023-05-21T01:35:58;102087.22;;;17.48;67.72
53635;BME280;39542;-34.932;138.594;2023-05-21T01:36:39;102090.22;;;17.48;67.77
53635;BME280;39542;-34.932;138.594;2023-05-21T01:37:18;102086.22;;;17.48;67.73
53635;BME280;39542;-34.932;138.594;2023-05-21T01:37:58;102086.55;;;17.48;67.78
53635;BME280;39542;-34.932;138.594;2023-05-21T01:38:41;102087.20;;;17.48;67.76
53635;BME280;39542;-34.932;138.594;2023-05-21T01:39:19;102086.38;;;17.47;67.80
53635;BME280;39542;-34.932;138.594;2023-05-21T01:39:59;102087.44;;;17.47;67.76
53635;BME280;39542;-34.932;138.594;2023-05-21T01:40:43;102086.45;;;17.47;67.78
53635;BME280;39542;-34.932;138.594;2023-05-21T01:41:19;102085.55;;;17.47;67.76
53635;BME280;39542;-34.932;138.594;2023-05-21T01:41:54;102088.03;;;17.49;67.80
53635;BME280;39542;-34.932;138.594;2023-05-21T01:42:30;102086.57;;;17.49;67.79
53635;BME280;39542;-34.932;138.594;2023-05-21T01:43:06;102082.39;;;17.47;67.80
53635;BME280;39542;-34.932;138.594;2023-05-21T01:43:43;102084.37;;;17.46;67.83
53635;BME280;39542;-34.932;138.594;2023-05-21T01:44:19;102085.50;;;17.47;67.80
53635;BME280;39542;-34.932;138.594;2023-05-21T01:44:56;102086.58;;;17.48;67.76
53635;BME280;39542;-34.932;138.594;2023-05-21T01:45:32;102083.52;;;17.49;67.78
53635;BME280;39542;-34.932;138.594;2023-05-21T01:46:13;102084.13;;;17.49;67.76
53635;BME280;39542;-34.932;138.594;2023-05-21T01:46:50;102084.55;;;17.48;67.80
53635;BME280;39542;-34.932;138.594;2023-05-21T01:47:27;102083.55;;;17.49;67.76
53635;BME280;39542;-34.932;138.594;2023-05-21T01:48:04;102084.73;;;17.48;67.74
53635;BME280;39542;-34.932;138.594;2023-05-21T01:48:41;102082.15;;;17.47;67.80
53635;BME280;39542;-34.932;138.594;2023-05-21T01:49:18;102083.62;;;17.47;67.78
53635;BME280;39542;-34.932;138.594;2023-05-21T01:49:53;102081.99;;;17.47;67.78
53635;BME280;39542;-34.932;138.594;2023-05-21T01:50:29;102081.71;;;17.47;67.80
53635;BME280;39542;-34.932;138.594;2023-05-21T01:51:04;102082.78;;;17.49;67.78
53635;BME280;39542;-34.932;138.594;2023-05-21T01:51:39;102082.44;;;17.47;67.83
53635;BME280;39542;-34.932;138.594;2023-05-21T01:52:14;102083.16;;;17.47;67.86
53635;BME280;39542;-34.932;138.594;2023-05-21T01:52:53;102079.68;;;17.47;67.78
53635;BME280;39542;-34.932;138.594;2023-05-21T01:53:27;102079.49;;;17.48;67.78
53635;BME280;39542;-34.932;138.594;2023-05-21T01:54:02;102079.30;;;17.46;67.84
53635;BME280;39542;-34.932;138.594;2023-05-21T01:54:36;102077.61;;;17.47;67.81
53635;BME280;39542;-34.932;138.594;2023-05-21T01:55:11;102077.21;;;17.47;67.80
53635;BME280;39542;-34.932;138.594;2023-05-21T01:55:45;102076.02;;;17.47;67.82
53635;BME280;39542;-34.932;138.594;2023-05-21T01:56:20;102073.64;;;17.47;67.87
53635;BME280;39542;-34.932;138.594;2023-05-21T01:56:54;102077.04;;;17.47;67.81
53635;BME280;39542;-34.932;138.594;2023-05-21T01:57:28;102075.65;;;17.47;67.84
53635;BME280;39542;-34.932;138.594;2023-05-21T01:58:03;102067.96;;;17.46;67.77
53635;BME280;39542;-34.932;138.594;2023-05-21T01:58:37;102072.54;;;17.48;67.82
53635;BME280;39542;-34.932;138.594;2023-05-21T01:59:12;102072.78;;;17.47;67.83
53635;BME280;39542;-34.932;138.594;2023-05-21T01:59:47;102070.77;;;17.46;67.80
53635;BME280;39542;-34.932;138.594;2023-05-21T02:00:22;102072.60;;;17.46;67.85
53635;BME280;39542;-34.932;138.594;2023-05-21T02:00:57;102067.28;;;17.47;67.84
53635;BME280;39542;-34.932;138.594;2023-05-21T02:01:31;102072.14;;;17.47;67.80
53635;BME280;39542;-34.932;138.594;2023-05-21T02:02:06;102075.47;;;17.46;67.87
53635;BME280;39542;-34.932;138.594;2023-05-21T02:02:40;102073.95;;;17.47;67.81
53635;BME280;39542;-34.932;138.594;2023-05-21T02:03:15;102072.40;;;17.45;67.82
53635;BME280;39542;-34.932;138.594;2023-05-21T02:03:49;102076.01;;;17.45;67.90
53635;BME280;39542;-34.932;138.594;2023-05-21T02:04:24;102075.29;;;17.46;67.85
53635;BME280;39542;-34.932;138.594;2023-05-21T02:04:58;102075.63;;;17.46;67.82
53635;BME280;39542;-34.932;138.594;2023-05-21T02:05:33;102075.22;;;17.47;67.79
53635;BME280;39542;-34.932;138.594;2023-05-21T02:06:07;102074.12;;;17.47;67.85
53635;BME280;39542;-34.932;138.594;2023-05-21T02:06:42;102074.62;;;17.48;67.80
53635;BME280;39542;-34.932;138.594;2023-05-21T02:07:16;102076.37;;;17.47;67.76
53635;BME280;39542;-34.932;138.594;2023-05-21T02:07:51;102072.75;;;17.47;67.80
53635;BME280;39542;-34.932;138.594;2023-05-21T02:08:25;102072.19;;;17.48;67.78
53635;BME280;39542;-34.932;138.594;2023-05-21T02:09:00;102072.88;;;17.50;67.71
53635;BME280;39542;-34.932;138.594;2023-05-21T02:09:34;102069.08;;;17.47;67.81
53635;BME280;39542;-34.932;138.594;2023-05-21T02:10:09;102070.16;;;17.47;67.79
53635;BME280;39542;-34.932;138.594;2023-05-21T02:10:43;102068.46;;;17.48;67.77
53635;BME280;39542;-34.932;138.594;2023-05-21T02:11:18;102065.13;;;17.47;67.83
53635;BME280;39542;-34.932;138.594;2023-05-21T02:11:53;102061.42;;;17.46;67.82
53635;BME280;39542;-34.932;138.594;2023-05-21T02:12:27;102060.59;;;17.45;67.92
53635;BME280;39542;-34.932;138.594;2023-05-21T02:13:02;102059.84;;;17.46;67.84
53635;BME280;39542;-34.932;138.594;2023-05-21T02:13:36;102060.27;;;17.47;67.80
53635;BME280;39542;-34.932;138.594;2023-05-21T02:14:10;102059.02;;;17.45;67.87
53635;BME280;39542;-34.932;138.594;2023-05-21T02:14:44;102057.20;;;17.47;67.79
53635;BME280;39542;-34.932;138.594;2023-05-21T02:15:19;102058.46;;;17.47;67.79
53635;BME280;39542;-34.932;138.594;2023-05-21T02:15:53;102057.23;;;17.49;67.78
53635;BME280;39542;-34.932;138.594;2023-05-21T02:16:28;102057.86;;;17.48;67.76
53635;BME280;39542;-34.932;138.594;2023-05-21T02:17:02;102058.69;;;17.47;67.82
53635;BME280;39542;-34.932;138.594;2023-05-21T02:17:36;102059.90;;;17.47;67.80
53635;BME280;39542;-34.932;138.594;2023-05-21T02:18:11;102062.32;;;17.47;67.79
53635;BME280;39542;-34.932;138.594;2023-05-21T02:18:45;102061.20;;;17.46;67.80
53635;BME280;39542;-34.932;138.594;2023-05-21T02:19:20;102059.11;;;17.46;67.84
53635;BME280;39542;-34.932;138.594;2023-05-21T02:19:54;102062.87;;;17.46;67.86
53635;BME280;39542;-34.932;138.594;2023-05-21T02:20:28;102059.71;;;17.46;67.82
53635;BME280;39542;-34.932;138.594;2023-05-21T02:21:03;102059.56;;;17.49;67.76
53635;BME280;39542;-34.932;138.594;2023-05-21T02:21:38;102060.64;;;17.49;67.72
53635;BME280;39542;-34.932;138.594;2023-05-21T02:22:12;102057.39;;;17.48;67.76
53635;BME280;39542;-34.932;138.594;2023-05-21T02:22:48;102059.93;;;17.47;67.76
53635;BME280;39542;-34.932;138.594;2023-05-21T02:23:22;102058.57;;;17.45;67.79
53635;BME280;39542;-34.932;138.594;2023-05-21T02:23:56;102059.75;;;17.45;67.77
53635;BME280;39542;-34.932;138.594;2023-05-21T02:24:31;102061.70;;;17.44;67.81
53635;BME280;39542;-34.932;138.594;2023-05-21T02:25:07;102062.99;;;17.45;67.77
53635;BME280;39542;-34.932;138.594;2023-05-21T02:25:42;102060.37;;;17.47;67.77
53635;BME280;39542;-34.932;138.594;2023-05-21T02:26:16;102059.00;;;17.47;67.74
53635;BME280;39542;-34.932;138.594;2023-05-21T02:26:51;102060.87;;;17.49;67.65
53635;BME280;39542;-34.932;138.594;2023-05-21T02:27:25;102054.90;;;17.49;67.70
53635;BME280;39542;-34.932;138.594;2023-05-21T02:27:59;102057.69;;;17.51;67.58
53635;BME280;39542;-34.932;138.594;2023-05-21T02:28:34;102053.67;;;17.50;67.64
53635;BME280;39542;-34.932;138.594;2023-05-21T02:29:08;102054.36;;;17.49;67.66
53635;BME280;39542;-34.932;138.594;2023-05-21T02:29:43;102053.38;;;17.48;67.65
53635;BME280;39542;-34.932;138.594;2023-05-21T02:30:17;102052.68;;;17.49;67.60
53635;BME280;39542;-34.932;138.594;2023-05-21T02:30:51;102055.70;;;17.49;67.58
53635;BME280;39542;-34.932;138.594;2023-05-21T02:31:26;102053.93;;;17.50;67.60
53635;BME280;39542;-34.932;138.594;2023-05-21T02:32:00;102053.21;;;17.48;67.64
53635;BME280;39542;-34.932;138.594;2023-05-21T02:32:34;102052.65;;;17.48;67.70
53635;BME280;39542;-34.932;138.594;2023-05-21T02:33:09;102057.55;;;17.46;67.66
53635;BME280;39542;-34.932;138.594;2023-05-21T02:33:43;102056.16;;;17.47;67.66
53635;BME280;39542;-34.932;138.594;2023-05-21T02:34:17;102057.18;;;17.45;67.65
53635;BME280;39542;-34.932;138.594;2023-05-21T02:34:52;102055.13;;;17.46;67.73
53635;BME280;39542;-34.932;138.594;2023-05-21T02:35:26;102057.93;;;17.44;67.72
53635;BME280;39542;-34.932;138.594;2023-05-21T02:36:00;102059.84;;;17.49;67.67
53635;BME280;39542;-34.932;138.594;2023-05-21T02:36:35;102059.56;;;17.48;67.71
53635;BME280;39542;-34.932;138.594;2023-05-21T02:37:09;102059.69;;;17.48;67.70
53635;BME280;39542;-34.932;138.594;2023-05-21T02:37:44;102055.48;;;17.52;67.56
53635;BME280;39542;-34.932;138.594;2023-05-21T02:38:18;102059.28;;;17.51;67.60
53635;BME280;39542;-34.932;138.594;2023-05-21T02:38:52;102057.24;;;17.53;67.61
53635;BME280;39542;-34.932;138.594;2023-05-21T02:39:27;102061.21;;;17.55;67.60
53635;BME280;39542;-34.932;138.594;2023-05-21T02:40:02;102057.58;;;17.51;67.66
53635;BME280;39542;-34.932;138.594;2023-05-21T02:40:37;102054.44;;;17.55;67.56
53635;BME280;39542;-34.932;138.594;2023-05-21T02:41:11;102058.04;;;17.52;67.63
53635;BME280;39542;-34.932;138.594;2023-05-21T02:41:46;102056.55;;;17.55;67.63
53635;BME280;39542;-34.932;138.594;2023-05-21T02:42:21;102057.95;;;17.57;67.58
53635;BME280;39542;-34.932;138.594;2023-05-21T02:42:55;102055.13;;;17.55;67.56
53635;BME280;39542;-34.932;138.594;2023-05-21T02:43:29;102054.00;;;17.53;67.61
53635;BME280;39542;-34.932;138.594;2023-05-21T02:44:03;102055.49;;;17.53;67.60
53635;BME280;39542;-34.932;138.594;2023-05-21T02:44:38;102051.37;;;17.54;67.59
53635;BME280;39542;-34.932;138.594;2023-05-21T02:45:13;102052.07;;;17.54;67.59
53635;BME280;39542;-34.932;138.594;2023-05-21T02:45:47;102052.63;;;17.53;67.70
53635;BME280;39542;-34.932;138.594;2023-05-21T02:46:23;102050.84;;;17.52;68.01
53635;BME280;39542;-34.932;138.594;2023-05-21T02:46:57;102050.00;;;17.54;68.58
53635;BME280;39542;-34.932;138.594;2023-05-21T02:47:32;102050.29;;;17.53;68.77
53635;BME280;39542;-34.932;138.594;2023-05-21T02:48:07;102052.49;;;17.55;68.96
53635;BME280;39542;-34.932;138.594;2023-05-21T02:48:41;102051.70;;;17.57;68.97
53635;BME280;39542;-34.932;138.594;2023-05-21T02:49:15;102049.96;;;17.56;68.99
53635;BME280;39542;-34.932;138.594;2023-05-21T02:49:50;102049.02;;;17.55;69.03
53635;BME280;39542;-34.932;138.594;2023-05-21T02:50:25;102047.65;;;17.55;69.32
53635;BME280;39542;-34.932;138.594;2023-05-21T02:50:59;102044.71;;;17.56;69.52
53635;BME280;39542;-34.932;138.594;2023-05-21T02:51:34;102048.13;;;17.55;69.59
53635;BME280;39542;-34.932;138.594;2023-05-21T02:52:08;102048.27;;;17.57;69.59
53635;BME280;39542;-34.932;138.594;2023-05-21T02:52:42;102045.92;;;17.59;69.57
53635;BME280;39542;-34.932;138.594;2023-05-21T02:53:17;102041.32;;;17.56;69.73
53635;BME280;39542;-34.932;138.594;2023-05-21T02:53:51;102042.79;;;17.56;69.52
53635;BME280;39542;-34.932;138.594;2023-05-21T02:54:26;102041.03;;;17.55;69.42
53635;BME280;39542;-34.932;138.594;2023-05-21T02:55:00;102041.81;;;17.58;69.60
53635;BME280;39542;-34.932;138.594;2023-05-21T02:55:34;102040.80;;;17.57;69.42
53635;BME280;39542;-34.932;138.594;2023-05-21T02:56:09;102040.56;;;17.56;69.42